Time;durP1;ratioP1;P1;durP2;ratioP2;P2;SDS_P1;SDS_P2;PMS_P1;PMS_P2;Temp;Humidity;BMP_temperature;BMP_pressure;BME280_temperature;BME280_humidity;BME280_pressure;Samples;Min_cycle;Max_cycle;Signal;HPM_P1;HPM_P2
2021/10/31 00:00:45;;;;;;;;;2.00;2.00;;;;;23.45;41.37;100417.63;4972598;28;49239;-63
2021/10/31 00:03:10;;;;;;;;;5.50;3.75;;;;;23.46;41.32;100421.09;4970412;28;45545;-63
2021/10/31 00:05:36;;;;;;;;;2.00;2.00;;;;;23.43;41.05;100419.66;4970434;28;46162;-63
2021/10/31 00:08:01;;;;;;;;;3.00;3.00;;;;;23.42;41.05;100419.88;4970214;28;45799;-63
2021/10/31 00:10:27;;;;;;;;;3.00;3.00;;;;;23.42;41.13;100415.34;4971332;28;45314;-63
2021/10/31 00:12:52;;;;;;;;;2.25;2.25;;;;;23.41;41.15;100408.44;4970557;28;45502;-63
2021/10/31 00:15:17;;;;;;;;;3.00;3.00;;;;;23.39;41.14;100411.25;4968585;28;46986;-63
2021/10/31 00:17:43;;;;;;;;;3.00;3.00;;;;;23.36;41.04;100400.25;4968957;28;45319;-63
2021/10/31 00:20:09;;;;;;;;;3.25;3.25;;;;;23.41;41.08;100405.78;4970557;28;45505;-63
2021/10/31 00:22:35;;;;;;;;;2.75;2.50;;;;;23.42;41.31;100403.94;4970334;28;45411;-63
2021/10/31 00:25:00;;;;;;;;;2.75;2.75;;;;;23.39;41.37;100403.31;4970696;28;46293;-64
2021/10/31 00:27:26;;;;;;;;;4.00;4.00;;;;;23.40;41.38;100412.91;4972798;28;45407;-63
2021/10/31 00:29:51;;;;;;;;;2.50;2.50;;;;;23.44;41.08;100407.22;4985688;28;45484;-63
2021/10/31 00:32:17;;;;;;;;;2.00;2.00;;;;;23.44;41.12;100402.72;4973815;28;45334;-63
2021/10/31 00:34:42;;;;;;;;;3.00;3.00;;;;;23.44;41.41;100410.69;4973737;28;45526;-63
2021/10/31 00:37:07;;;;;;;;;3.00;3.00;;;;;23.42;41.31;100412.69;4974404;28;45471;-63
2021/10/31 00:39:33;;;;;;;;;3.00;3.00;;;;;23.44;41.27;100405.38;4973318;28;45699;-63
2021/10/31 00:41:58;;;;;;;;;2.00;2.00;;;;;23.43;40.90;100401.06;4973167;28;45372;-64
2021/10/31 00:44:23;;;;;;;;;2.00;2.00;;;;;23.39;41.53;100395.34;4973186;28;45415;-63
2021/10/31 00:46:49;;;;;;;;;2.75;2.75;;;;;23.43;41.07;100395.75;4973056;28;45429;-64
2021/10/31 00:49:14;;;;;;;;;2.00;2.00;;;;;23.42;41.00;100394.13;4975152;28;45545;-63
2021/10/31 00:51:40;;;;;;;;;3.00;3.00;;;;;23.44;40.81;100393.94;4972648;28;45513;-63
2021/10/31 00:54:06;;;;;;;;;2.00;2.00;;;;;23.43;40.97;100390.44;4971297;28;45448;-63
2021/10/31 00:56:33;;;;;;;;;3.00;2.75;;;;;23.44;41.12;100389.44;4971603;28;45494;-63
2021/10/31 00:58:59;;;;;;;;;4.50;2.00;;;;;23.45;41.30;100388.41;4957822;28;45480;-63
2021/10/31 01:01:27;;;;;;;;;2.50;2.50;;;;;23.45;40.91;100392.91;4976649;28;45359;-63
2021/10/31 01:03:52;;;;;;;;;2.00;2.00;;;;;23.46;41.24;100386.59;4972662;28;45412;-63
2021/10/31 01:06:55;;;;;;;;;2.00;2.00;;;;;23.45;40.80;100383.09;4972435;28;45433;-63
2021/10/31 01:09:46;;;;;;;;;3.00;3.00;;;;;23.41;40.99;100371.25;4972688;28;45517;-63
2021/10/31 01:12:29;;;;;;;;;2.00;1.00;;;;;23.45;41.09;100375.13;4972638;28;45416;-64
2021/10/31 01:15:18;;;;;;;;;2.00;2.00;;;;;23.43;40.92;100363.91;4972648;28;46204;-63
2021/10/31 01:17:51;;;;;;;;;3.75;2.00;;;;;23.45;41.23;100358.38;4972509;28;46569;-63
2021/10/31 01:20:22;;;;;;;;;3.75;3.75;;;;;23.44;41.42;100360.25;4972276;28;45521;-63
2021/10/31 01:23:15;;;;;;;;;3.00;3.00;;;;;23.41;41.00;100347.38;4974042;28;45379;-63
2021/10/31 01:25:56;;;;;;;;;2.75;2.50;;;;;23.43;40.83;100342.66;4971094;28;46415;-64
2021/10/31 01:28:41;;;;;;;;;2.75;2.00;;;;;23.42;41.45;100342.88;4973913;28;45264;-63
2021/10/31 01:31:21;;;;;;;;;3.00;3.00;;;;;23.44;40.84;100346.16;4973884;28;45369;-63
2021/10/31 01:33:57;;;;;;;;;3.00;3.00;;;;;23.41;41.12;100334.09;4970796;28;45522;-63
2021/10/31 01:36:47;;;;;;;;;2.75;2.75;;;;;23.44;40.96;100338.19;4972008;28;46173;-63
2021/10/31 01:39:37;;;;;;;;;4.00;2.25;;;;;23.44;41.11;100335.53;4972480;28;45379;-63
2021/10/31 01:42:21;;;;;;;;;2.75;2.75;;;;;23.43;41.41;100334.69;4972446;28;45456;-64
2021/10/31 01:45:00;;;;;;;;;2.00;2.00;;;;;23.37;40.95;100325.69;4972315;28;45448;-63
2021/10/31 01:47:46;;;;;;;;;2.00;2.00;;;;;23.42;41.06;100316.34;4972609;28;46654;-63
2021/10/31 01:50:22;;;;;;;;;3.25;2.75;;;;;23.39;41.12;100310.38;4956629;28;45400;-63
2021/10/31 01:52:53;;;;;;;;;2.00;2.00;;;;;23.41;40.97;100307.53;4972286;28;45342;-63
2021/10/31 01:55:31;;;;;;;;;2.50;2.00;;;;;23.42;41.37;100300.41;4974420;28;45595;-64
2021/10/31 01:58:00;;;;;;;;;2.75;2.75;;;;;23.42;41.16;100295.09;4972669;28;46216;-63
2021/10/31 02:00:29;;;;;;;;;2.25;2.25;;;;;23.39;40.76;100291.00;4972088;28;45532;-63
2021/10/31 02:02:57;;;;;;;;;2.00;2.00;;;;;23.41;40.91;100294.28;4972268;28;45361;-63
2021/10/31 02:05:26;;;;;;;;;3.00;3.00;;;;;23.41;41.13;100281.00;4971850;28;45618;-64
2021/10/31 02:07:56;;;;;;;;;2.25;2.25;;;;;23.41;40.81;100275.69;4972086;28;46585;-64
2021/10/31 02:10:24;;;;;;;;;2.75;2.75;;;;;23.39;41.08;100261.81;4972660;28;45316;-64
2021/10/31 02:12:51;;;;;;;;;2.00;2.00;;;;;23.40;41.39;100261.59;4970807;28;45605;-63
2021/10/31 02:15:18;;;;;;;;;3.50;3.50;;;;;23.42;41.35;100264.03;4970555;28;45322;-63
2021/10/31 02:17:49;;;;;;;;;3.00;2.00;;;;;23.41;40.92;100257.09;4971910;28;46336;-63
2021/10/31 02:20:15;;;;;;;;;4.00;4.00;;;;;23.42;41.22;100248.09;4971552;28;45288;-63
2021/10/31 02:22:43;;;;;;;;;2.00;2.00;;;;;23.40;41.07;100237.69;4972775;28;45220;-64
2021/10/31 02:25:10;;;;;;;;;1.25;1.00;;;;;23.35;40.86;100215.44;4973615;28;45277;-63
2021/10/31 02:27:41;;;;;;;;;2.00;2.00;;;;;23.37;41.05;100222.19;4971661;28;47004;-63
2021/10/31 02:30:07;;;;;;;;;3.00;2.00;;;;;23.35;41.01;100207.47;4971629;28;45470;-63
2021/10/31 02:32:33;;;;;;;;;1.75;1.75;;;;;23.40;40.77;100219.13;4972004;28;45506;-63
2021/10/31 02:34:59;;;;;;;;;3.00;2.00;;;;;23.39;41.06;100214.03;4954905;28;45352;-63
2021/10/31 02:37:26;;;;;;;;;2.00;2.00;;;;;23.42;41.28;100210.16;4973666;28;46079;-63
2021/10/31 02:39:53;;;;;;;;;1.00;1.00;;;;;23.42;40.69;100215.44;4971593;28;45529;-63
2021/10/31 02:42:20;;;;;;;;;2.00;2.00;;;;;23.42;40.92;100213.59;4970518;28;45446;-63
2021/10/31 02:44:45;;;;;;;;;2.00;1.75;;;;;23.44;41.04;100200.97;4971807;28;45790;-63
2021/10/31 02:47:21;;;;;;;;;3.00;3.00;;;;;23.43;41.14;100199.31;4971143;28;45465;-63
2021/10/31 02:49:46;;;;;;;;;2.00;2.00;;;;;23.40;40.92;100183.78;4971568;28;45418;-63
2021/10/31 02:52:31;;;;;;;;;2.75;2.75;;;;;23.43;41.16;100180.72;4971768;28;45442;-63
2021/10/31 02:55:02;;;;;;;;;2.00;2.00;;;;;23.43;41.01;100188.69;4970706;28;45456;-63
2021/10/31 02:57:42;;;;;;;;;4.25;3.00;;;;;23.42;40.62;100173.78;4971295;28;46453;-63
2021/10/31 03:00:12;;;;;;;;;1.00;1.00;;;;;23.40;41.05;100168.69;4971352;28;45356;-63
2021/10/31 03:02:38;;;;;;;;;2.00;2.00;;;;;23.42;40.84;100165.81;4971099;28;45407;-63
2021/10/31 03:05:04;;;;;;;;;1.25;1.25;;;;;23.40;41.24;100160.72;4971419;28;45277;-63
2021/10/31 03:07:30;;;;;;;;;2.00;2.00;;;;;23.42;41.27;100162.38;4972433;28;47517;-63
2021/10/31 03:09:55;;;;;;;;;2.00;2.00;;;;;23.39;41.09;100156.41;4971308;28;45418;-64
2021/10/31 03:12:20;;;;;;;;;3.50;2.00;;;;;23.41;40.64;100161.53;4971192;28;45637;-64
2021/10/31 03:14:47;;;;;;;;;3.75;3.00;;;;;23.38;41.27;100161.94;4971346;28;45620;-63
2021/10/31 03:17:13;;;;;;;;;3.00;3.00;;;;;23.35;41.19;100165.00;4970858;28;45638;-63
2021/10/31 03:19:38;;;;;;;;;3.00;2.00;;;;;23.40;40.95;100158.06;4972129;28;45312;-63
2021/10/31 03:22:05;;;;;;;;;1.25;1.00;;;;;23.40;41.28;100160.72;4972513;28;45378;-63
2021/10/31 03:24:30;;;;;;;;;2.00;2.00;;;;;23.41;40.93;100164.19;4971114;28;49235;-63
2021/10/31 03:26:56;;;;;;;;;3.25;3.25;;;;;23.40;41.27;100150.09;4970779;28;46380;-63
2021/10/31 03:29:24;;;;;;;;;3.50;2.00;;;;;23.40;40.60;100154.59;4969581;28;45312;-63
2021/10/31 03:31:50;;;;;;;;;2.00;2.00;;;;;23.39;40.85;100156.41;4971247;28;45554;-63
2021/10/31 03:34:15;;;;;;;;;2.00;2.00;;;;;23.39;40.85;100151.09;4971332;28;45412;-63
2021/10/31 03:36:41;;;;;;;;;2.50;2.00;;;;;23.39;40.43;100142.34;4970821;28;45453;-63
2021/10/31 03:39:07;;;;;;;;;1.75;1.75;;;;;23.36;40.92;100122.34;4970793;28;45381;-63
2021/10/31 03:41:32;;;;;;;;;2.00;2.00;;;;;23.38;40.68;100136.22;4971110;28;45582;-63
2021/10/31 03:43:58;;;;;;;;;2.00;2.00;;;;;23.40;40.95;100128.03;4971044;28;45554;-63
2021/10/31 03:46:23;;;;;;;;;2.75;2.00;;;;;23.35;41.25;100106.59;4972425;28;45430;-63
2021/10/31 03:48:49;;;;;;;;;4.00;3.00;;;;;23.40;41.27;100102.31;4970790;28;45280;-63
2021/10/31 03:51:14;;;;;;;;;3.00;2.00;;;;;23.41;40.90;100095.19;4970774;28;45409;-64
2021/10/31 03:53:39;;;;;;;;;3.00;3.00;;;;;23.40;41.06;100097.00;4970634;28;45501;-63
2021/10/31 03:56:05;;;;;;;;;1.75;1.75;;;;;23.40;40.80;100094.34;4970746;28;46516;-63
2021/10/31 03:58:30;;;;;;;;;1.75;1.75;;;;;23.36;40.92;100090.50;4972855;28;45541;-63
2021/10/31 04:00:55;;;;;;;;;4.00;2.00;;;;;23.39;40.71;100095.38;4967985;28;45405;-63
2021/10/31 04:03:21;;;;;;;;;3.00;1.75;;;;;23.42;40.91;100101.31;4973328;28;45504;-63
2021/10/31 04:05:46;;;;;;;;;1.25;1.25;;;;;23.42;41.23;100093.34;4973566;28;46333;-63
2021/10/31 04:08:11;;;;;;;;;2.50;2.00;;;;;23.42;40.68;100093.34;4972253;28;45855;-63
2021/10/31 04:10:37;;;;;;;;;2.00;2.00;;;;;23.38;40.72;100095.59;4974820;28;45587;-63
2021/10/31 04:13:03;;;;;;;;;1.50;1.50;;;;;23.44;40.68;100093.94;4972977;28;45447;-63
2021/10/31 04:15:28;;;;;;;;;2.00;2.00;;;;;23.39;40.54;100074.13;4973136;28;46378;-63
2021/10/31 04:17:53;;;;;;;;;2.75;2.00;;;;;23.40;41.10;100078.44;4973560;28;45288;-63
2021/10/31 04:20:20;;;;;;;;;0.25;0.25;;;;;23.41;40.60;100076.59;4973405;28;45339;-63
2021/10/31 04:22:46;;;;;;;;;1.00;1.00;;;;;23.39;41.07;100070.69;4973777;28;45263;-63
2021/10/31 04:25:12;;;;;;;;;1.25;1.25;;;;;23.40;40.52;100081.09;4971948;28;48017;-63
2021/10/31 04:27:37;;;;;;;;;1.00;1.00;;;;;23.40;40.47;100057.19;4973315;28;45472;-63
2021/10/31 04:30:04;;;;;;;;;1.00;1.00;;;;;23.40;40.61;100054.53;4973275;28;45442;-63
2021/10/31 04:32:30;;;;;;;;;3.33;2.00;;;;;23.35;40.98;100051.69;4973462;28;45534;-63
2021/10/31 04:34:55;;;;;;;;;1.00;1.00;;;;;23.39;41.13;100047.59;4973281;28;46204;-64
2021/10/31 04:37:21;;;;;;;;;1.00;1.00;;;;;23.34;40.88;100039.44;4975291;28;45340;-64
2021/10/31 04:39:48;;;;;;;;;1.00;1.00;;;;;23.38;40.80;100037.19;4973238;28;45814;-63
2021/10/31 04:42:13;;;;;;;;;2.00;2.00;;;;;23.38;40.77;100038.00;4973208;28;45543;-63
2021/10/31 04:44:39;;;;;;;;;1.50;1.50;;;;;23.39;40.99;100018.38;4972502;28;46136;-63
2021/10/31 04:47:05;;;;;;;;;3.00;2.00;;;;;23.39;40.77;100036.19;4971598;28;45364;-63
2021/10/31 04:49:30;;;;;;;;;1.75;1.00;;;;;23.37;40.97;100015.13;4974006;28;45379;-63
2021/10/31 04:51:57;;;;;;;;;1.75;1.75;;;;;23.39;40.98;100014.94;4971771;28;45524;-63
2021/10/31 04:54:23;;;;;;;;;1.00;1.00;;;;;23.39;40.49;100007.78;4972877;28;45653;-64
2021/10/31 04:56:49;;;;;;;;;3.00;1.67;;;;;23.37;40.94;100007.16;4972978;28;45380;-63
2021/10/31 04:59:15;;;;;;;;;2.00;2.00;;;;;23.37;40.81;100006.34;4972736;28;45470;-63
2021/10/31 05:01:41;;;;;;;;;1.75;1.00;;;;;23.38;40.84;99997.38;4973996;28;45632;-64
2021/10/31 05:04:06;;;;;;;;;2.00;2.00;;;;;23.37;40.65;100014.31;4972817;28;46485;-63
2021/10/31 05:06:31;;;;;;;;;1.00;1.00;;;;;23.37;40.86;99985.13;4972845;28;45468;-63
2021/10/31 05:08:57;;;;;;;;;1.00;1.00;;;;;23.32;40.85;99980.44;4973101;28;45363;-63
2021/10/31 05:11:23;;;;;;;;;1.75;1.00;;;;;23.37;41.01;99969.19;4972879;28;45506;-63
2021/10/31 05:13:48;;;;;;;;;1.00;1.00;;;;;23.36;40.46;99980.84;4972107;28;45367;-63
2021/10/31 05:16:14;;;;;;;;;1.00;1.00;;;;;23.35;40.60;99979.22;4974929;28;45441;-63
2021/10/31 05:18:40;;;;;;;;;1.00;1.00;;;;;23.38;41.06;99978.78;4972761;28;45355;-63
2021/10/31 05:21:05;;;;;;;;;2.00;2.00;;;;;23.37;40.73;99972.66;4972524;28;45389;-63
2021/10/31 05:23:31;;;;;;;;;1.00;1.00;;;;;23.37;40.95;99959.38;4972564;28;46060;-63
2021/10/31 05:25:57;;;;;;;;;1.00;1.00;;;;;23.36;40.96;99962.28;4972102;28;45253;-64
2021/10/31 05:28:22;;;;;;;;;1.00;1.00;;;;;23.38;40.69;99962.88;4973805;28;45290;-64
2021/10/31 05:30:47;;;;;;;;;1.00;1.00;;;;;23.38;40.79;99957.56;4971128;28;45193;-63
2021/10/31 05:33:13;;;;;;;;;1.00;1.00;;;;;23.39;40.86;99937.97;4972327;28;45229;-63
2021/10/31 05:35:38;;;;;;;;;2.00;2.00;;;;;23.38;40.37;99929.19;4972494;28;45434;-64
2021/10/31 05:38:05;;;;;;;;;1.75;1.00;;;;;23.38;40.50;99925.72;4972820;28;45500;-64
2021/10/31 05:40:31;;;;;;;;;1.00;1.00;;;;;23.36;40.29;99914.50;4974599;28;45452;-63
2021/10/31 05:42:57;;;;;;;;;0.33;0.33;;;;;23.39;40.69;99930.78;4972091;28;47217;-63
2021/10/31 05:45:24;;;;;;;;;2.00;2.00;;;;;23.38;40.29;99925.72;4972491;28;45371;-63
2021/10/31 05:47:52;;;;;;;;;1.25;1.25;;;;;23.39;40.69;99933.44;4972677;28;45527;-64
2021/10/31 05:50:18;;;;;;;;;1.50;1.50;;;;;23.38;40.41;99929.19;4972351;28;45279;-63
2021/10/31 05:52:45;;;;;;;;;1.50;1.50;;;;;23.37;40.28;99938.16;4972753;28;45522;-63
2021/10/31 05:55:14;;;;;;;;;1.00;1.00;;;;;23.38;40.35;99931.84;4974152;28;45398;-63
2021/10/31 05:57:39;;;;;;;;;1.50;1.00;;;;;23.36;40.42;99928.59;4971923;28;45379;-64
2021/10/31 06:00:08;;;;;;;;;1.25;0.00;;;;;23.37;40.64;99940.00;4972392;28;45426;-63
2021/10/31 06:02:34;;;;;;;;;2.00;2.00;;;;;23.36;40.92;99917.97;4972094;28;46259;-64
2021/10/31 06:05:00;;;;;;;;;1.00;1.00;;;;;23.37;40.27;99914.28;4955969;28;45852;-64
2021/10/31 06:07:26;;;;;;;;;1.00;1.00;;;;;23.38;40.78;99923.88;4974038;28;45371;-63
2021/10/31 06:09:52;;;;;;;;;2.00;2.00;;;;;23.38;40.65;99923.88;4970734;28;45393;-63
2021/10/31 06:12:18;;;;;;;;;1.25;1.25;;;;;23.34;40.73;99912.03;4971635;28;45547;-63
2021/10/31 06:14:43;;;;;;;;;1.00;1.00;;;;;23.36;40.93;99931.25;4973145;28;45455;-63
2021/10/31 06:17:09;;;;;;;;;1.00;1.00;;;;;23.37;40.94;99946.13;4972291;28;47309;-63
2021/10/31 06:19:35;;;;;;;;;2.00;2.00;;;;;23.36;40.51;99935.72;4973485;28;45506;-63
2021/10/31 06:22:01;;;;;;;;;1.00;1.00;;;;;23.35;40.80;99929.59;4974308;28;45435;-63
2021/10/31 06:24:26;;;;;;;;;1.00;1.00;;;;;23.31;40.40;99931.06;4970778;28;45387;-63
2021/10/31 06:26:52;;;;;;;;;2.00;2.00;;;;;23.37;40.27;99918.75;4971641;28;45298;-63
2021/10/31 06:29:17;;;;;;;;;1.00;1.00;;;;;23.31;40.72;99915.13;4972165;28;45450;-63
2021/10/31 06:31:43;;;;;;;;;2.00;2.00;;;;;23.36;40.78;99933.88;4972365;28;46015;-64
2021/10/31 06:34:08;;;;;;;;;1.50;1.50;;;;;23.34;40.80;99919.19;4973389;28;45394;-63
2021/10/31 06:36:34;;;;;;;;;1.25;1.00;;;;;23.36;40.80;99917.97;4971852;28;45725;-63
2021/10/31 06:38:59;;;;;;;;;2.00;1.00;;;;;23.36;40.57;99907.34;4971784;28;45328;-63
2021/10/31 06:41:25;;;;;;;;;2.00;2.00;;;;;23.32;40.92;99886.72;4971340;28;46897;-63
2021/10/31 06:43:50;;;;;;;;;1.00;1.00;;;;;23.35;40.68;99887.13;4971879;28;46283;-63
2021/10/31 06:46:16;;;;;;;;;1.25;1.00;;;;;23.32;40.57;99876.94;4972367;28;45843;-63
2021/10/31 06:48:42;;;;;;;;;2.00;1.00;;;;;23.33;40.28;99856.53;4970436;28;45408;-64
2021/10/31 06:51:07;;;;;;;;;3.00;1.00;;;;;23.36;40.26;99866.72;4971377;28;46514;-63
2021/10/31 06:53:32;;;;;;;;;2.00;2.00;;;;;23.33;40.38;99854.69;4971744;28;45479;-63
2021/10/31 06:56:01;;;;;;;;;0.50;0.50;;;;;23.32;40.65;99863.66;4971559;28;45343;-63
2021/10/31 06:58:26;;;;;;;;;2.00;1.00;;;;;23.35;40.56;99867.72;4973809;28;45338;-63
2021/10/31 07:00:52;;;;;;;;;2.25;2.25;;;;;23.35;40.57;99854.47;4971206;28;46573;-63
2021/10/31 07:03:17;;;;;;;;;1.00;1.00;;;;;23.37;40.38;99852.41;4970226;28;45547;-63
2021/10/31 07:05:43;;;;;;;;;2.00;0.67;;;;;23.36;40.16;99854.25;4972378;28;45481;-63
2021/10/31 07:08:08;;;;;;;;;1.00;1.00;;;;;23.34;40.46;99836.94;4971441;28;45166;-63
2021/10/31 07:10:34;;;;;;;;;1.00;1.00;;;;;23.36;40.80;99826.91;4972676;28;47176;-63
2021/10/31 07:12:59;;;;;;;;;1.00;1.00;;;;;23.37;40.70;99817.91;4972416;28;45373;-64
2021/10/31 07:15:25;;;;;;;;;2.00;1.50;;;;;23.36;40.35;99826.91;4971390;28;45768;-63
2021/10/31 07:17:52;;;;;;;;;2.00;1.00;;;;;23.33;40.31;99837.94;4971210;28;45325;-63
2021/10/31 07:20:18;;;;;;;;;1.00;1.00;;;;;23.30;40.33;99810.00;4970876;28;46781;-63
2021/10/31 07:22:43;;;;;;;;;0.50;0.50;;;;;23.37;40.79;99825.84;4970166;28;46174;-63
2021/10/31 07:25:10;;;;;;;;;2.00;1.00;;;;;23.38;40.34;99824.84;4970910;28;45427;-63
2021/10/31 07:27:35;;;;;;;;;1.00;1.00;;;;;23.36;40.66;99810.97;4969792;28;45559;-63
2021/10/31 07:30:01;;;;;;;;;1.25;1.25;;;;;23.34;40.80;99799.78;4970795;28;45456;-64
2021/10/31 07:32:27;;;;;;;;;1.00;1.00;;;;;23.37;40.39;99797.47;4971195;28;45643;-64
2021/10/31 07:34:53;;;;;;;;;1.75;0.50;;;;;23.34;40.65;99792.59;4971266;28;45359;-63
2021/10/31 07:37:18;;;;;;;;;1.25;1.25;;;;;23.35;40.27;99799.53;4975266;28;45466;-64
2021/10/31 07:39:45;;;;;;;;;1.00;1.00;;;;;23.37;40.47;99786.03;4973772;28;46483;-63
2021/10/31 07:42:10;;;;;;;;;1.75;1.00;;;;;23.36;40.43;99795.88;4973872;28;45438;-63
2021/10/31 07:44:36;;;;;;;;;1.00;1.00;;;;;23.37;40.32;99794.81;4974079;28;45537;-64
2021/10/31 07:47:01;;;;;;;;;1.50;1.00;;;;;23.36;40.80;99797.72;4974169;28;45487;-64
2021/10/31 07:49:27;;;;;;;;;0.67;0.67;;;;;23.29;40.49;99787.13;4975897;28;45812;-63
2021/10/31 07:51:52;;;;;;;;;0.67;0.67;;;;;23.36;40.70;99781.78;4992104;27;45330;-63
2021/10/31 07:54:24;;;;;;;;;0.50;0.50;;;;;23.36;40.33;99773.81;4973819;28;45490;-63
2021/10/31 07:56:51;;;;;;;;;1.50;1.00;;;;;23.34;40.07;99773.22;4973761;28;45510;-63
2021/10/31 07:59:17;;;;;;;;;2.00;1.00;;;;;23.36;40.47;99768.50;4973615;28;46124;-64
2021/10/31 08:01:42;;;;;;;;;3.75;1.00;;;;;23.36;40.82;99771.16;4974336;28;45319;-63
2021/10/31 08:04:08;;;;;;;;;1.67;1.67;;;;;23.20;40.71;99732.69;4973469;28;45296;-64
2021/10/31 08:06:33;;;;;;;;;0.50;0.50;;;;;23.33;40.60;99761.78;4971903;28;45591;-64
2021/10/31 08:08:59;;;;;;;;;0.00;0.00;;;;;23.35;40.53;99767.69;4973508;28;46550;-63
2021/10/31 08:11:24;;;;;;;;;1.00;1.00;;;;;23.35;40.15;99748.28;4973423;28;45580;-63
2021/10/31 08:13:50;;;;;;;;;1.00;1.00;;;;;23.32;40.80;99746.06;4973643;28;45471;-64
2021/10/31 08:16:16;;;;;;;;;1.00;1.00;;;;;23.31;40.77;99716.09;4975621;28;45505;-64
2021/10/31 08:18:41;;;;;;;;;1.25;1.00;;;;;23.36;40.83;99729.53;4973293;28;45603;-64
2021/10/31 08:21:08;;;;;;;;;1.00;1.00;;;;;23.29;40.67;99713.63;4972522;28;45387;-63
2021/10/31 08:23:34;;;;;;;;;0.75;0.75;;;;;23.35;40.67;99719.09;4973722;28;45363;-64
2021/10/31 08:26:00;;;;;;;;;0.75;0.75;;;;;23.34;40.72;99717.50;4973415;28;45420;-64
2021/10/31 08:28:26;;;;;;;;;1.67;1.00;;;;;23.30;40.53;99709.13;4975393;28;46107;-63
2021/10/31 08:30:58;;;;;;;;;1.00;1.00;;;;;23.29;40.46;99710.97;4973091;28;45543;-63
2021/10/31 08:33:32;;;;;;;;;2.00;2.00;;;;;23.35;40.32;99700.53;4973139;28;45246;-64
2021/10/31 08:35:58;;;;;;;;;2.00;1.00;;;;;23.36;40.16;99720.75;4972818;28;45308;-63
2021/10/31 08:38:23;;;;;;;;;0.25;0.25;;;;;23.35;40.77;99703.19;4972960;28;46808;-64
2021/10/31 08:40:51;;;;;;;;;1.00;1.00;;;;;23.36;40.57;99695.00;4973459;28;45495;-64
2021/10/31 08:43:18;;;;;;;;;2.75;1.25;;;;;23.36;40.73;99673.78;4974074;28;45336;-63
2021/10/31 08:45:45;;;;;;;;;1.00;1.00;;;;;23.36;40.21;99649.06;4971613;28;45374;-64
2021/10/31 08:48:12;;;;;;;;;2.00;0.67;;;;;23.36;40.59;99633.16;4972337;28;45486;-63
2021/10/31 08:50:37;;;;;;;;;0.00;0.00;;;;;23.38;40.55;99615.16;4972502;28;45535;-64
2021/10/31 08:53:13;;;;;;;;;0.00;0.00;;;;;23.37;40.10;99613.53;4973145;28;45492;-64
2021/10/31 08:55:40;;;;;;;;;1.00;1.00;;;;;23.35;40.78;99613.75;4971816;28;45615;-64
2021/10/31 08:58:07;;;;;;;;;1.00;1.00;;;;;23.34;40.19;99620.09;4973935;28;46604;-64
2021/10/31 09:00:33;;;;;;;;;1.00;1.00;;;;;23.35;40.58;99591.72;4973022;28;45450;-64
2021/10/31 09:02:59;;;;;;;;;1.00;0.75;;;;;23.37;40.69;99601.06;4985301;28;45514;-64
2021/10/31 09:05:27;;;;;;;;;0.33;0.33;;;;;23.37;40.20;99592.28;4972856;28;45324;-63
2021/10/31 09:07:52;;;;;;;;;1.25;0.50;;;;;23.36;40.44;99577.41;4972898;28;45998;-64
2021/10/31 09:10:17;;;;;;;;;0.00;0.00;;;;;23.35;40.32;99573.13;4975815;28;45234;-64
2021/10/31 09:12:43;;;;;;;;;1.00;1.00;;;;;23.37;40.57;99592.28;4972774;28;45399;-64
2021/10/31 09:15:08;;;;;;;;;0.00;0.00;;;;;23.37;40.13;99573.72;4972687;28;45269;-62
2021/10/31 09:17:34;;;;;;;;;1.00;1.00;;;;;23.36;40.27;99578.25;4972810;28;45373;-63
2021/10/31 09:19:59;;;;;;;;;1.00;1.00;;;;;23.37;40.79;99571.06;4973182;28;45483;-63
2021/10/31 09:22:25;;;;;;;;;2.00;1.50;;;;;23.33;40.12;99561.94;4974793;28;45312;-63
2021/10/31 09:24:50;;;;;;;;;1.00;1.00;;;;;23.34;40.45;99550.28;4971450;28;45381;-63
2021/10/31 09:27:17;;;;;;;;;2.00;0.00;;;;;23.35;40.62;99555.38;4972487;28;45430;-63
2021/10/31 09:29:42;;;;;;;;;1.00;0.67;;;;;23.34;40.17;99564.34;4972342;28;45520;-63
2021/10/31 09:32:08;;;;;;;;;0.00;0.00;;;;;23.33;40.31;99573.38;4972966;28;45322;-63
2021/10/31 09:34:33;;;;;;;;;1.00;1.00;;;;;23.35;40.59;99531.47;4973697;28;45264;-63
2021/10/31 09:37:02;;;;;;;;;2.00;1.00;;;;;23.31;40.08;99542.78;4972877;28;46289;-63
2021/10/31 09:39:27;;;;;;;;;0.00;0.00;;;;;23.32;40.11;99582.34;4972465;28;45268;-64
2021/10/31 09:41:52;;;;;;;;;2.00;0.00;;;;;23.35;40.07;99552.72;4972291;28;45563;-64
2021/10/31 09:44:32;;;;;;;;;1.00;1.00;;;;;23.32;40.52;99550.50;4972586;28;45386;-63
2021/10/31 09:46:57;;;;;;;;;2.00;0.00;;;;;23.32;40.80;99565.59;4972487;28;46307;-63
2021/10/31 09:49:24;;;;;;;;;1.00;0.00;;;;;23.32;40.73;99517.84;4972361;28;45336;-63
2021/10/31 09:51:53;;;;;;;;;1.50;1.50;;;;;23.34;40.43;99545.78;4972287;28;45492;-64
2021/10/31 09:54:19;;;;;;;;;1.00;0.50;;;;;23.34;40.63;99539.69;4972061;28;45296;-64
2021/10/31 09:56:45;;;;;;;;;0.33;0.33;;;;;23.35;40.07;99538.63;4972256;28;46252;-63
2021/10/31 09:59:13;;;;;;;;;1.00;1.00;;;;;23.33;40.06;99525.59;4969445;28;45419;-63
2021/10/31 10:02:08;;;;;;;;;2.00;1.00;;;;;23.35;40.71;99525.34;4973463;28;45410;-63
2021/10/31 10:04:39;;;;;;;;;2.33;1.00;;;;;23.34;40.48;99545.00;4970287;28;45358;-63
2021/10/31 10:07:07;;;;;;;;;2.00;0.25;;;;;23.35;40.70;99549.25;4973055;28;46162;-63
2021/10/31 10:09:35;;;;;;;;;0.00;0.00;;;;;23.34;40.08;99552.94;4972039;28;45398;-63
2021/10/31 10:12:14;;;;;;;;;1.00;0.25;;;;;23.36;40.25;99564.16;4972090;27;45393;-63
2021/10/31 10:14:40;;;;;;;;;0.75;0.75;;;;;23.35;40.74;99568.63;4972133;28;45558;-63
2021/10/31 10:17:11;;;;;;;;;0.00;0.00;;;;;23.28;40.48;99551.97;4971535;28;46352;-63
2021/10/31 10:19:50;;;;;;;;;1.00;1.00;;;;;23.36;40.58;99550.88;4973268;28;45400;-64
2021/10/31 10:22:20;;;;;;;;;0.00;0.00;;;;;23.37;40.74;99557.78;4972394;28;45351;-63
2021/10/31 10:24:55;;;;;;;;;0.00;0.00;;;;;23.37;40.27;99544.53;4972043;28;45300;-63
2021/10/31 10:27:24;;;;;;;;;0.00;0.00;;;;;23.37;40.67;99539.22;4971579;28;45468;-64
2021/10/31 10:29:50;;;;;;;;;0.00;0.00;;;;;23.36;40.51;99545.56;4971813;28;45540;-63
2021/10/31 10:32:19;;;;;;;;;0.50;0.50;;;;;23.36;40.82;99543.72;4971806;28;45418;-63
2021/10/31 10:34:50;;;;;;;;;1.00;1.00;;;;;23.39;40.34;99550.44;4972412;28;45550;-64
2021/10/31 10:37:32;;;;;;;;;2.00;0.00;;;;;23.39;40.40;99547.78;4971987;28;46718;-65
2021/10/31 10:40:11;;;;;;;;;0.00;0.00;;;;;23.39;40.51;99547.78;4972247;28;45427;-64
2021/10/31 10:42:41;;;;;;;;;0.67;0.67;;;;;23.39;40.39;99543.28;4970592;28;45426;-64
2021/10/31 10:45:08;;;;;;;;;1.67;0.33;;;;;23.40;40.09;99542.25;4971784;28;45247;-64
2021/10/31 10:47:40;;;;;;;;;0.75;0.75;;;;;23.40;40.55;99538.78;4971301;28;45473;-64
2021/10/31 10:50:06;;;;;;;;;0.33;0.33;;;;;23.39;40.35;99530.00;4956715;28;45401;-62
2021/10/31 10:52:40;;;;;;;;;0.00;0.00;;;;;23.40;40.72;99533.47;4974021;28;45481;-64
2021/10/31 10:55:14;;;;;;;;;1.75;1.00;;;;;23.34;40.54;99513.94;4972713;28;45241;-63
2021/10/31 10:57:43;;;;;;;;;0.00;0.00;;;;;23.42;40.22;99536.72;4971484;28;45495;-63
2021/10/31 11:00:34;;;;;;;;;1.00;1.00;;;;;23.41;40.22;99513.88;4970945;28;45578;-63
2021/10/31 11:03:21;;;;;;;;;1.00;1.00;;;;;23.40;40.53;99514.88;4971373;28;45358;-63
2021/10/31 11:06:01;;;;;;;;;1.75;1.25;;;;;23.40;40.54;99502.44;4969177;28;45505;-64
2021/10/31 11:08:26;;;;;;;;;0.00;0.00;;;;;23.34;40.20;99491.91;4971325;28;45598;-63
2021/10/31 11:11:10;;;;;;;;;2.00;0.00;;;;;23.38;40.79;99498.38;4970813;28;45386;-64
2021/10/31 11:13:45;;;;;;;;;1.75;1.75;;;;;23.38;40.70;99482.47;4969572;28;45369;-63
2021/10/31 11:16:12;;;;;;;;;0.00;0.00;;;;;23.39;40.46;99486.75;4972704;28;45296;-64
2021/10/31 11:18:38;;;;;;;;;0.75;0.75;;;;;23.37;40.25;99481.63;4969440;28;46345;-63
2021/10/31 11:21:05;;;;;;;;;1.00;1.00;;;;;23.37;40.59;99479.00;4969414;28;45483;-64
2021/10/31 11:23:35;;;;;;;;;2.00;1.00;;;;;23.39;40.29;99476.91;4971284;28;45677;-63
2021/10/31 11:26:04;;;;;;;;;1.00;1.00;;;;;23.38;40.40;99472.66;4971312;28;45597;-64
2021/10/31 11:28:30;;;;;;;;;1.00;0.00;;;;;23.37;40.49;99464.91;4968835;28;47189;-64
2021/10/31 11:30:57;;;;;;;;;1.75;1.00;;;;;23.33;40.76;99453.13;4970680;28;45363;-63
2021/10/31 11:33:23;;;;;;;;;0.75;0.75;;;;;23.36;40.92;99453.50;4970899;28;45377;-64